Time;durP1;ratioP1;P1;durP2;ratioP2;P2;SDS_P1;SDS_P2;PMS_P1;PMS_P2;Temp;Humidity;BMP_temperature;BMP_pressure;BME280_temperature;BME280_humidity;BME280_pressure;Samples;Min_cycle;Max_cycle;Signal;HPM_P1;HPM_P2
2023/06/02 00:01:36;;;;;;;3.22;2.85;;;25.30;52.40;;;;;;5074664;28;20052;-70
2023/06/02 00:04:04;;;;;;;2.85;2.53;;;25.20;52.30;;;;;;5074370;28;20047;-71
2023/06/02 00:06:33;;;;;;;4.18;2.97;;;25.30;52.40;;;;;;5075026;28;20431;-69
2023/06/02 00:09:04;;;;;;;3.40;2.90;;;25.20;52.40;;;;;;5075406;28;20048;-70
2023/06/02 00:11:36;;;;;;;4.22;2.53;;;25.20;52.40;;;;;;5075216;28;20343;-69
2023/06/02 00:14:05;;;;;;;3.20;2.90;;;25.20;52.40;;;;;;5075421;28;20045;-72
2023/06/02 00:16:44;;;;;;;3.63;3.00;;;25.20;52.40;;;;;;5074927;28;20135;-70
2023/06/02 00:19:13;;;;;;;4.22;2.72;;;25.20;52.40;;;;;;5075502;28;20199;-69
2023/06/02 00:21:41;;;;;;;2.47;2.28;;;25.20;52.40;;;;;;5075225;28;20425;-70
2023/06/02 00:24:09;;;;;;;2.83;2.63;;;25.20;52.40;;;;;;5075506;28;20111;-69
2023/06/02 00:26:36;;;;;;;4.13;2.85;;;25.20;52.40;;;;;;5074926;28;20056;-69
2023/06/02 00:29:03;;;;;;;2.50;2.30;;;25.20;52.40;;;;;;5074197;28;20052;-69
2023/06/02 00:31:30;;;;;;;3.25;2.67;;;25.20;52.40;;;;;;5074728;28;20481;-70
2023/06/02 00:33:58;;;;;;;3.00;2.70;;;25.20;52.50;;;;;;5075697;28;20063;-69
2023/06/02 00:36:25;;;;;;;3.33;2.92;;;25.20;52.50;;;;;;5074617;28;20378;-69
2023/06/02 00:38:52;;;;;;;3.10;2.75;;;25.20;52.50;;;;;;5074303;28;20082;-70
2023/06/02 00:41:20;;;;;;;4.78;2.40;;;25.10;52.50;;;;;;5073288;28;20102;-69
2023/06/02 00:43:47;;;;;;;3.83;2.88;;;25.20;52.50;;;;;;5073119;28;20488;-68
2023/06/02 00:46:14;;;;;;;2.85;2.42;;;25.10;52.40;;;;;;5073991;28;20071;-69
2023/06/02 00:48:42;;;;;;;4.47;3.05;;;25.20;52.50;;;;;;5073864;28;20052;-68
2023/06/02 00:51:10;;;;;;;2.22;2.13;;;25.10;52.40;;;;;;5074493;28;20119;-69
2023/06/02 00:53:38;;;;;;;2.42;2.22;;;25.10;52.50;;;;;;5073228;28;20080;-68
2023/06/02 00:56:05;;;;;;;4.50;2.47;;;25.10;52.50;;;;;;5074182;28;20083;-69
2023/06/02 00:58:38;;;;;;;2.60;2.40;;;25.10;52.50;;;;;;5074847;28;20094;-70
2023/06/02 01:01:10;;;;;;;3.25;2.67;;;25.10;52.50;;;;;;5074218;28;20057;-69
2023/06/02 01:03:39;;;;;;;2.40;2.20;;;25.10;52.50;;;;;;5074177;28;20048;-69
2023/06/02 01:06:07;;;;;;;2.72;2.53;;;25.10;52.50;;;;;;5074053;28;20121;-68
2023/06/02 01:08:37;;;;;;;2.85;2.55;;;25.10;52.50;;;;;;5073495;28;20052;-68
2023/06/02 01:11:06;;;;;;;2.30;2.10;;;25.10;52.50;;;;;;5073848;28;20443;-68
2023/06/02 01:13:34;;;;;;;1.97;1.87;;;25.10;52.50;;;;;;5074640;28;20041;-68
2023/06/02 01:16:02;;;;;;;2.45;2.25;;;25.10;52.50;;;;;;5074051;28;20048;-70
2023/06/02 01:18:35;;;;;;;2.58;2.38;;;25.10;52.50;;;;;;5073431;28;20058;-69
2023/06/02 01:21:05;;;;;;;2.70;2.50;;;25.10;52.50;;;;;;5073801;28;20060;-68
2023/06/02 01:23:34;;;;;;;2.83;2.60;;;25.10;52.50;;;;;;5073838;28;20045;-69
2023/06/02 01:26:01;;;;;;;2.95;2.75;;;25.10;52.50;;;;;;5073937;28;20049;-68
2023/06/02 01:28:28;;;;;;;5.70;2.38;;;25.10;52.50;;;;;;5073628;28;20053;-69
2023/06/02 01:31:08;;;;;;;2.67;2.47;;;25.00;52.50;;;;;;5074420;28;20501;-68
2023/06/02 01:33:45;;;;;;;2.40;2.20;;;25.10;52.50;;;;;;5074098;28;20370;-68
2023/06/02 01:36:14;;;;;;;2.65;2.45;;;25.10;52.50;;;;;;5071971;28;20338;-69
2023/06/02 01:38:43;;;;;;;2.97;2.40;;;25.10;52.50;;;;;;5073719;28;20098;-69
2023/06/02 01:41:13;;;;;;;3.35;2.47;;;25.00;52.50;;;;;;5073674;28;20057;-69
2023/06/02 01:43:40;;;;;;;;;;;25.10;52.50;;;;;;5073981;28;20394;-68
2023/06/02 01:46:09;;;;;;;2.83;2.50;;;25.00;52.40;;;;;;5072363;28;19920;-68
2023/06/02 01:48:36;;;;;;;2.00;1.90;;;25.00;52.50;;;;;;5072858;28;20067;-69
2023/06/02 01:51:03;;;;;;;2.58;2.38;;;25.00;52.50;;;;;;5073805;28;20048;-69
2023/06/02 01:53:30;;;;;;;2.55;2.35;;;25.00;52.40;;;;;;5073727;28;20076;-69
2023/06/02 01:55:58;;;;;;;2.60;2.40;;;25.00;52.50;;;;;;5073418;28;20053;-68
2023/06/02 01:58:25;;;;;;;3.60;2.50;;;25.00;52.50;;;;;;5072945;28;20049;-69
2023/06/02 02:00:54;;;;;;;3.05;2.20;;;25.00;52.50;;;;;;5072819;28;20386;-69
2023/06/02 02:03:22;;;;;;;2.58;2.38;;;25.00;52.50;;;;;;5073462;28;20098;-68
2023/06/02 02:05:49;;;;;;;2.55;2.17;;;25.00;52.50;;;;;;5074009;28;20044;-68
2023/06/02 02:08:17;;;;;;;3.13;2.83;;;25.00;52.50;;;;;;5072922;28;20070;-68
2023/06/02 02:10:44;;;;;;;1.98;1.88;;;25.00;52.50;;;;;;5088923;28;20048;-68
2023/06/02 02:13:11;;;;;;;2.72;2.47;;;24.90;52.50;;;;;;5072888;28;20147;-68
2023/06/02 02:15:38;;;;;;;3.15;2.65;;;25.00;52.60;;;;;;5072201;28;20049;-69
2023/06/02 02:18:06;;;;;;;2.17;1.98;;;24.90;52.50;;;;;;5071234;28;20135;-68
2023/06/02 02:20:40;;;;;;;2.97;2.38;;;24.90;52.50;;;;;;5071704;28;20072;-68
2023/06/02 02:23:07;;;;;;;2.50;2.30;;;25.00;52.50;;;;;;5072090;28;20409;-69
2023/06/02 02:25:34;;;;;;;2.88;2.33;;;24.90;52.50;;;;;;5072239;28;20481;-69
2023/06/02 02:28:01;;;;;;;2.28;2.08;;;24.90;52.50;;;;;;5072186;28;20056;-68
2023/06/02 02:30:28;;;;;;;2.38;2.17;;;24.90;52.50;;;;;;5072067;28;20098;-68
2023/06/02 02:32:55;;;;;;;2.80;2.60;;;24.90;52.50;;;;;;5072206;28;20083;-69
2023/06/02 02:35:22;;;;;;;2.58;2.38;;;24.90;52.50;;;;;;5072310;28;20094;-69
2023/06/02 02:37:49;;;;;;;2.55;2.15;;;24.90;52.60;;;;;;5070961;28;20596;-68
2023/06/02 02:40:17;;;;;;;2.78;2.58;;;24.90;52.60;;;;;;5072003;28;20098;-69
2023/06/02 02:42:44;;;;;;;2.60;2.40;;;24.90;52.50;;;;;;5072680;28;20477;-69
2023/06/02 02:45:11;;;;;;;2.35;2.15;;;24.90;52.50;;;;;;5072068;28;20056;-68
2023/06/02 02:47:38;;;;;;;2.42;2.22;;;24.90;52.60;;;;;;5070226;28;20094;-69
2023/06/02 02:50:06;;;;;;;2.83;2.28;;;24.90;52.60;;;;;;5072678;28;20055;-68
2023/06/02 02:52:35;;;;;;;4.25;2.10;;;24.90;52.60;;;;;;5071404;28;20047;-70
2023/06/02 02:55:03;;;;;;;2.85;2.50;;;24.90;52.60;;;;;;5054579;28;20044;-69
2023/06/02 02:57:31;;;;;;;2.20;2.10;;;24.90;52.60;;;;;;5072585;28;20110;-68
2023/06/02 02:59:59;;;;;;;2.65;2.45;;;24.90;52.60;;;;;;5070572;28;20049;-69
2023/06/02 03:02:26;;;;;;;2.40;2.20;;;24.90;52.60;;;;;;5071671;28;20102;-69
2023/06/02 03:04:53;;;;;;;2.85;2.13;;;24.90;52.60;;;;;;5072564;28;20051;-68
2023/06/02 03:07:20;;;;;;;2.72;2.50;;;24.90;52.60;;;;;;5072424;28;20049;-68
2023/06/02 03:09:47;;;;;;;2.25;2.05;;;24.90;52.60;;;;;;5072218;28;20052;-69
2023/06/02 03:12:14;;;;;;;2.40;2.20;;;24.90;52.60;;;;;;5060726;28;20045;-68
2023/06/02 03:14:42;;;;;;;2.95;2.63;;;24.90;52.60;;;;;;5050987;28;20049;-69
2023/06/02 03:17:09;;;;;;;2.78;2.58;;;24.90;52.60;;;;;;5061142;28;20048;-68
2023/06/02 03:19:36;;;;;;;2.10;2.00;;;24.90;52.50;;;;;;5073050;28;20397;-68
2023/06/02 03:22:03;;;;;;;2.30;2.10;;;24.90;52.50;;;;;;5072469;28;20041;-68
2023/06/02 03:24:30;;;;;;;3.33;2.05;;;24.90;52.50;;;;;;5071219;28;20049;-68
2023/06/02 03:26:58;;;;;;;2.58;2.38;;;24.90;52.40;;;;;;5055445;28;20048;-68
2023/06/02 03:29:25;;;;;;;2.33;2.13;;;24.90;52.40;;;;;;5051902;28;20056;-68
2023/06/02 03:31:54;;;;;;;2.50;2.30;;;24.90;52.40;;;;;;5066789;28;20041;-69
2023/06/02 03:34:23;;;;;;;2.25;2.05;;;24.90;52.30;;;;;;5072864;28;20468;-68
2023/06/02 03:36:50;;;;;;;1.85;1.75;;;25.00;52.30;;;;;;5074246;28;20492;-68
2023/06/02 03:39:17;;;;;;;2.30;2.10;;;24.90;52.20;;;;;;5069190;28;20053;-69
2023/06/02 03:41:44;;;;;;;2.58;2.22;;;24.90;52.20;;;;;;5072524;28;20040;-69
2023/06/02 03:44:12;;;;;;;2.35;2.17;;;25.00;52.20;;;;;;5072783;28;20106;-68
2023/06/02 03:46:39;;;;;;;2.40;2.20;;;25.00;52.10;;;;;;5072889;28;20116;-68
2023/06/02 03:49:06;;;;;;;2.03;1.92;;;25.00;52.10;;;;;;5072734;28;20049;-68
2023/06/02 03:51:33;;;;;;;1.98;1.88;;;25.10;52.00;;;;;;5072820;28;20141;-68
2023/06/02 03:54:00;;;;;;;2.45;2.25;;;25.00;52.50;;;;;;5063340;28;20045;-68
2023/06/02 03:56:27;;;;;;;2.70;2.47;;;25.10;51.90;;;;;;5052487;28;20061;-68
2023/06/02 03:58:55;;;;;;;2.92;2.25;;;25.10;51.90;;;;;;5052439;28;20045;-68
2023/06/02 04:01:23;;;;;;;2.60;2.30;;;25.10;51.80;;;;;;5051415;28;20081;-68
2023/06/02 04:03:50;;;;;;;3.53;1.98;;;25.10;51.70;;;;;;5060350;28;20094;-69
2023/06/02 04:06:17;;;;;;;2.25;2.05;;;25.20;51.70;;;;;;5071045;28;20049;-69
2023/06/02 04:08:46;;;;;;;2.53;2.33;;;25.10;51.60;;;;;;5070867;28;20400;-68
2023/06/02 04:11:13;;;;;;;2.10;1.90;;;25.20;51.60;;;;;;5072380;28;20048;-68
2023/06/02 04:13:40;;;;;;;2.67;2.47;;;25.20;51.50;;;;;;5070993;28;20563;-68
2023/06/02 04:16:08;;;;;;;2.10;1.95;;;25.20;51.50;;;;;;5078545;28;20128;-69
2023/06/02 04:18:39;;;;;;;2.17;1.98;;;25.20;51.40;;;;;;5080552;28;20135;-68
2023/06/02 04:21:06;;;;;;;1.73;1.63;;;25.20;51.30;;;;;;5074403;28;20048;-69
2023/06/02 04:23:33;;;;;;;1.67;1.58;;;25.30;51.30;;;;;;5073847;28;20049;-68
2023/06/02 04:26:00;;;;;;;2.75;2.47;;;25.30;51.30;;;;;;5073663;28;20088;-69
2023/06/02 04:28:29;;;;;;;2.90;2.60;;;25.30;51.20;;;;;;5071989;28;20052;-68
2023/06/02 04:30:58;;;;;;;2.47;2.10;;;25.30;51.20;;;;;;5074733;28;20067;-69
2023/06/02 04:33:26;;;;;;;2.20;2.00;;;25.30;51.10;;;;;;5075180;28;20102;-69
2023/06/02 04:35:56;;;;;;;2.13;2.03;;;25.40;51.10;;;;;;5074621;28;20044;-69
2023/06/02 04:38:23;;;;;;;1.92;1.83;;;25.40;51.00;;;;;;5074078;28;20052;-68
2023/06/02 04:40:51;;;;;;;2.05;1.85;;;25.40;50.90;;;;;;5073021;28;20052;-71
2023/06/02 04:43:18;;;;;;;3.53;2.03;;;25.40;50.80;;;;;;5063058;28;20114;-68
2023/06/02 04:45:47;;;;;;;5.40;2.42;;;25.40;50.70;;;;;;5067008;28;20099;-70
2023/06/02 04:48:14;;;;;;;3.03;1.90;;;25.40;50.60;;;;;;5074533;28;20055;-69
2023/06/02 04:50:41;;;;;;;2.30;1.95;;;25.50;50.50;;;;;;5074699;28;20098;-68
2023/06/02 04:53:08;;;;;;;2.70;2.50;;;25.50;50.50;;;;;;5072154;28;20076;-68
2023/06/02 04:55:36;;;;;;;2.30;2.10;;;25.50;50.40;;;;;;5073360;28;20163;-67
2023/06/02 04:58:04;;;;;;;2.63;2.42;;;25.50;50.40;;;;;;5074531;28;20053;-69
2023/06/02 05:00:31;;;;;;;2.50;2.30;;;25.50;50.30;;;;;;5068343;28;20041;-68
2023/06/02 05:02:58;;;;;;;2.42;2.22;;;25.60;50.30;;;;;;5059529;28;20135;-69
2023/06/02 05:05:26;;;;;;;2.53;2.33;;;25.60;50.30;;;;;;5074426;28;20040;-66
2023/06/02 05:07:53;;;;;;;2.60;2.40;;;25.60;50.20;;;;;;5073483;28;20049;-66
2023/06/02 05:10:21;;;;;;;1.90;1.80;;;25.60;50.20;;;;;;5074455;28;20128;-66
2023/06/02 05:12:49;;;;;;;3.33;2.40;;;25.60;50.20;;;;;;5073846;28;20420;-66
2023/06/02 05:15:16;;;;;;;2.35;2.15;;;25.60;50.10;;;;;;5069502;28;20048;-67
2023/06/02 05:17:44;;;;;;;4.53;2.60;;;25.70;50.10;;;;;;5064388;28;20044;-67
2023/06/02 05:20:11;;;;;;;2.20;2.10;;;25.70;50.10;;;;;;5066448;28;20052;-69
2023/06/02 05:22:39;;;;;;;3.80;2.92;;;25.70;50.60;;;;;;5070844;28;20086;-67
2023/06/02 05:25:07;;;;;;;2.97;2.72;;;25.80;50.10;;;;;;5068274;28;20074;-73
2023/06/02 05:27:37;;;;;;;2.63;2.33;;;25.80;50.20;;;;;;5066981;28;20131;-71
2023/06/02 05:30:06;;;;;;;3.17;2.75;;;25.80;50.10;;;;;;5061176;28;20512;-68
2023/06/02 05:32:33;;;;;;;3.05;2.58;;;25.80;50.00;;;;;;5060170;28;20044;-67
2023/06/02 05:35:00;;;;;;;2.60;2.28;;;25.90;49.90;;;;;;5062525;28;20084;-67
2023/06/02 05:37:28;;;;;;;4.00;2.72;;;25.90;49.80;;;;;;5067951;28;20041;-65
2023/06/02 05:39:55;;;;;;;3.38;2.75;;;26.00;49.70;;;;;;5063632;28;20386;-68
2023/06/02 05:42:22;;;;;;;2.60;2.30;;;26.00;49.70;;;;;;5064729;28;20484;-68
2023/06/02 05:44:49;;;;;;;3.90;2.65;;;26.00;49.60;;;;;;5065183;28;20048;-68
2023/06/02 05:47:16;;;;;;;2.45;2.25;;;26.00;49.60;;;;;;5058650;28;20052;-68
2023/06/02 05:49:43;;;;;;;9.40;2.63;;;26.10;49.60;;;;;;5062042;28;20458;-72
2023/06/02 05:52:11;;;;;;;10.88;2.60;;;26.10;49.40;;;;;;5069108;28;20056;-71
2023/06/02 05:54:38;;;;;;;2.92;2.67;;;26.10;49.60;;;;;;5063752;28;20044;-71
2023/06/02 05:57:06;;;;;;;3.65;3.13;;;26.10;49.50;;;;;;5063581;28;20053;-70
2023/06/02 05:59:33;;;;;;;3.75;3.28;;;26.10;50.30;;;;;;5059337;28;20052;-72
2023/06/02 06:02:00;;;;;;;9.05;3.63;;;26.10;50.20;;;;;;5060861;28;20049;-73
2023/06/02 06:04:27;;;;;;;6.95;4.30;;;26.10;50.90;;;;;;5065087;28;20058;-69
2023/06/02 06:06:55;;;;;;;5.63;3.55;;;26.10;51.40;;;;;;5063826;28;20306;-71
2023/06/02 06:09:24;;;;;;;6.82;3.58;;;26.00;51.50;;;;;;5061741;28;20076;-70
2023/06/02 06:11:51;;;;;;;3.85;2.83;;;26.00;51.60;;;;;;5061639;28;20105;-71
2023/06/02 06:14:18;;;;;;;5.70;3.90;;;26.10;51.30;;;;;;5060184;28;20478;-71
2023/06/02 06:16:45;;;;;;;15.45;4.30;;;26.10;51.90;;;;;;5063506;28;20037;-68
2023/06/02 06:19:14;;;;;;;5.60;3.92;;;26.10;52.00;;;;;;5057642;28;20114;-68
2023/06/02 06:21:43;;;;;;;8.95;4.20;;;26.10;52.20;;;;;;5055263;28;20052;-71
2023/06/02 06:24:10;;;;;;;4.85;3.95;;;26.00;52.20;;;;;;5050419;28;20137;-70
2023/06/02 06:26:38;;;;;;;14.45;4.10;;;26.10;52.50;;;;;;5058432;28;20148;-71
2023/06/02 06:29:05;;;;;;;5.22;3.53;;;26.10;52.10;;;;;;5062903;28;20389;-67
2023/06/02 06:31:32;;;;;;;7.47;3.95;;;26.10;51.90;;;;;;5059190;28;20048;-65
2023/06/02 06:34:02;;;;;;;8.35;3.20;;;26.10;51.60;;;;;;5060505;28;20052;-66
2023/06/02 06:36:29;;;;;;;12.30;4.10;;;26.20;51.20;;;;;;5064064;28;20037;-65
2023/06/02 06:38:57;;;;;;;5.55;3.83;;;26.20;51.20;;;;;;5059277;28;20562;-66
2023/06/02 06:41:25;;;;;;;5.95;3.40;;;26.30;51.00;;;;;;5060125;28;20131;-65
2023/06/02 06:43:53;;;;;;;4.35;3.35;;;26.30;50.80;;;;;;5063586;28;20564;-67
2023/06/02 06:46:20;;;;;;;4.15;3.30;;;26.40;50.60;;;;;;5063517;28;20079;-67
2023/06/02 06:48:47;;;;;;;5.60;3.13;;;26.50;50.70;;;;;;5061433;28;20408;-70
2023/06/02 06:51:18;;;;;;;7.75;4.07;;;26.50;50.60;;;;;;5062429;28;20094;-68
2023/06/02 06:53:45;;;;;;;6.03;4.00;;;26.50;50.50;;;;;;5057942;28;20084;-70
2023/06/02 06:56:12;;;;;;;4.47;3.40;;;26.60;50.40;;;;;;5062721;28;20147;-68
2023/06/02 06:58:40;;;;;;;3.78;3.38;;;26.60;50.30;;;;;;5061174;28;20048;-67
2023/06/02 07:01:07;;;;;;;4.43;3.53;;;26.60;49.90;;;;;;5061358;28;20040;-66
2023/06/02 07:03:34;;;;;;;4.95;3.67;;;26.70;49.90;;;;;;5058314;28;20090;-67
2023/06/02 07:06:01;;;;;;;6.88;3.50;;;26.70;50.10;;;;;;5062819;28;20045;-68
2023/06/02 07:08:30;;;;;;;5.45;3.50;;;26.80;50.00;;;;;;5059068;28;20052;-69
2023/06/02 07:10:58;;;;;;;4.45;3.55;;;26.80;49.90;;;;;;5059324;28;20139;-69
2023/06/02 07:13:27;;;;;;;5.40;3.60;;;26.80;49.80;;;;;;5064254;28;20052;-73
2023/06/02 07:15:55;;;;;;;8.43;3.70;;;26.80;49.70;;;;;;5056667;28;20072;-70
2023/06/02 07:18:22;;;;;;;7.10;3.53;;;26.80;49.50;;;;;;5057619;28;20094;-71
2023/06/02 07:20:49;;;;;;;5.90;3.33;;;26.80;49.40;;;;;;5062521;28;20036;-68
2023/06/02 07:23:17;;;;;;;4.45;3.05;;;26.90;49.40;;;;;;5060745;28;20048;-68
2023/06/02 07:25:45;;;;;;;6.53;3.40;;;26.90;49.30;;;;;;5062870;28;20052;-69
2023/06/02 07:28:12;;;;;;;5.45;3.90;;;26.90;49.30;;;;;;5062934;28;20560;-69
2023/06/02 07:30:53;;;;;;;5.05;3.22;;;26.90;49.20;;;;;;5042032;28;20074;-68
2023/06/02 07:33:36;;;;;;;6.75;3.20;;;26.90;49.20;;;;;;5053196;28;20043;-67
2023/06/02 07:36:03;;;;;;;4.65;3.17;;;26.90;49.10;;;;;;5051887;28;20076;-70
2023/06/02 07:38:30;;;;;;;5.30;3.50;;;27.00;49.10;;;;;;5049744;28;20056;-66
2023/06/02 07:40:57;;;;;;;5.25;3.45;;;27.00;49.00;;;;;;5058204;28;20086;-68
2023/06/02 07:43:24;;;;;;;4.35;3.30;;;27.00;49.00;;;;;;5052957;28;20566;-67
2023/06/02 07:45:52;;;;;;;5.75;3.38;;;27.00;48.90;;;;;;5051911;28;20052;-66
2023/06/02 07:48:19;;;;;;;6.57;3.83;;;27.10;49.00;;;;;;5048692;28;20489;-68
2023/06/02 07:50:47;;;;;;;5.47;4.00;;;27.10;50.20;;;;;;5051777;28;20059;-67
2023/06/02 07:53:15;;;;;;;4.78;2.97;;;27.00;50.50;;;;;;5058102;28;20131;-68
2023/06/02 07:55:43;;;;;;;4.15;3.55;;;26.70;44.70;;;;;;5059511;28;20086;-69
2023/06/02 07:58:11;;;;;;;4.68;3.05;;;26.10;45.60;;;;;;5060538;28;20056;-68
2023/06/02 08:00:39;;;;;;;4.72;3.40;;;25.40;46.40;;;;;;5058892;28;20060;-70
2023/06/02 08:03:07;;;;;;;3.80;3.40;;;24.80;47.50;;;;;;5067276;28;20047;-69
2023/06/02 08:05:35;;;;;;;3.95;3.50;;;24.30;48.60;;;;;;5063976;28;20048;-67
2023/06/02 08:08:02;;;;;;;5.30;3.42;;;23.80;49.60;;;;;;5067098;28;20048;-67
2023/06/02 08:10:30;;;;;;;7.70;4.30;;;23.50;50.80;;;;;;5062818;28;20110;-68
2023/06/02 08:12:57;;;;;;;7.90;4.00;;;23.20;51.40;;;;;;5063682;28;20110;-69
2023/06/02 08:15:24;;;;;;;5.45;4.40;;;22.90;52.40;;;;;;5066495;28;20094;-68
2023/06/02 08:17:51;;;;;;;4.22;3.58;;;22.70;52.90;;;;;;5065952;28;20098;-67
2023/06/02 08:20:19;;;;;;;4.57;3.40;;;22.50;53.20;;;;;;5065317;28;20385;-67
2023/06/02 08:22:47;;;;;;;5.45;3.95;;;22.40;54.10;;;;;;5063854;28;20048;-69
2023/06/02 08:25:15;;;;;;;4.55;4.05;;;22.30;55.00;;;;;;5069050;28;20049;-65
2023/06/02 08:27:44;;;;;;;5.43;4.00;;;22.20;54.90;;;;;;5067124;28;20044;-66
2023/06/02 08:30:13;;;;;;;5.43;4.13;;;22.10;55.00;;;;;;5066647;28;20052;-66
2023/06/02 08:32:40;;;;;;;6.78;4.00;;;22.00;55.30;;;;;;5066360;28;20047;-67
2023/06/02 08:35:07;;;;;;;4.47;4.07;;;21.90;55.60;;;;;;5065878;28;20048;-65
2023/06/02 08:37:34;;;;;;;8.07;4.57;;;21.90;55.50;;;;;;5063703;28;20044;-67
2023/06/02 08:40:03;;;;;;;5.68;5.07;;;21.80;55.70;;;;;;5066402;28;20059;-67
2023/06/02 08:42:32;;;;;;;5.07;3.92;;;21.80;55.60;;;;;;5061514;28;20114;-69
2023/06/02 08:44:59;;;;;;;4.85;3.90;;;21.70;56.10;;;;;;5061420;28;20052;-66
2023/06/02 08:47:30;;;;;;;5.40;3.53;;;21.70;56.30;;;;;;5062689;28;20165;-67
2023/06/02 08:50:02;;;;;;;5.97;3.88;;;21.60;56.30;;;;;;5068979;28;20109;-67
2023/06/02 08:52:31;;;;;;;7.68;4.63;;;21.60;56.20;;;;;;5061169;28;20131;-66
2023/06/02 08:54:58;;;;;;;6.68;3.97;;;21.60;57.10;;;;;;5064990;28;20457;-65
2023/06/02 08:57:26;;;;;;;8.57;4.75;;;21.60;57.30;;;;;;5066421;28;20048;-66
2023/06/02 08:59:53;;;;;;;7.03;5.03;;;21.60;56.80;;;;;;5068899;28;20055;-66
2023/06/02 09:02:20;;;;;;;7.57;4.38;;;21.60;56.60;;;;;;5064715;28;20087;-67
2023/06/02 09:04:47;;;;;;;6.00;4.32;;;21.60;56.50;;;;;;5069159;28;20050;-67
2023/06/02 09:07:20;;;;;;;4.05;3.65;;;21.60;56.40;;;;;;5066128;28;20127;-66
2023/06/02 09:09:51;;;;;;;8.23;5.00;;;21.60;56.30;;;;;;5065464;28;20493;-68
2023/06/02 09:12:19;;;;;;;;;;;21.50;56.20;;;;;;5065737;28;20049;-69
2023/06/02 09:14:47;;;;;;;6.18;4.57;;;21.50;56.50;;;;;;5062670;28;19970;-66
2023/06/02 09:17:29;;;;;;;5.55;4.43;;;21.40;56.90;;;;;;5066693;28;20041;-67
2023/06/02 09:20:05;;;;;;;6.45;4.35;;;21.30;57.20;;;;;;5068207;28;20560;-68
2023/06/02 09:22:33;;;;;;;5.65;4.20;;;21.30;57.00;;;;;;5062932;28;20059;-67
2023/06/02 09:25:21;;;;;;;8.68;4.18;;;21.30;57.20;;;;;;5065885;28;20059;-66
2023/06/02 09:27:54;;;;;;;6.22;4.45;;;21.20;57.90;;;;;;5065878;28;20052;-67
2023/06/02 09:30:22;;;;;;;5.50;3.97;;;21.20;57.50;;;;;;5065722;28;20048;-67
2023/06/02 09:33:05;;;;;;;5.10;4.30;;;21.20;57.70;;;;;;5064074;28;20049;-67
2023/06/02 09:35:39;;;;;;;5.05;4.43;;;21.20;58.20;;;;;;5061393;28;20052;-68
2023/06/02 09:38:15;;;;;;;6.50;4.35;;;21.10;57.70;;;;;;5058306;28;20041;-68
2023/06/02 09:40:43;;;;;;;5.57;4.53;;;21.10;57.90;;;;;;5059948;28;20040;-69
2023/06/02 09:43:12;;;;;;;4.65;3.92;;;21.10;57.60;;;;;;5065895;28;20060;-68
2023/06/02 09:46:00;;;;;;;6.18;4.32;;;21.10;57.60;;;;;;5064891;28;20489;-68
2023/06/02 09:48:29;;;;;;;7.75;4.97;;;21.10;57.70;;;;;;5067568;28;20072;-64
2023/06/02 09:50:56;;;;;;;5.80;4.63;;;21.00;57.60;;;;;;5070045;28;20425;-67
2023/06/02 09:53:24;;;;;;;6.78;4.65;;;21.10;57.80;;;;;;5068353;28;20052;-69
2023/06/02 09:55:51;;;;;;;5.47;4.50;;;21.10;57.90;;;;;;5067544;28;20048;-71
2023/06/02 09:58:19;;;;;;;4.93;4.20;;;21.10;57.90;;;;;;5067365;28;20535;-66
2023/06/02 10:00:47;;;;;;;8.48;5.05;;;21.10;57.50;;;;;;5067191;28;20447;-68
2023/06/02 10:03:14;;;;;;;5.38;4.88;;;21.10;57.60;;;;;;5067818;28;20068;-68
2023/06/02 10:05:49;;;;;;;8.48;4.95;;;21.00;57.70;;;;;;5067326;28;20401;-66
2023/06/02 10:08:56;;;;;;;8.25;4.15;;;21.00;57.90;;;;;;5069272;28;20135;-66
2023/06/02 10:11:53;;;;;;;8.65;4.60;;;21.10;57.90;;;;;;5067132;28;20114;-68
2023/06/02 10:14:54;;;;;;;6.65;4.50;;;21.10;58.10;;;;;;5064193;28;20036;-65
2023/06/02 10:17:50;;;;;;;4.50;4.00;;;21.10;57.90;;;;;;5064372;28;20420;-64
2023/06/02 10:20:33;;;;;;;5.22;4.13;;;21.10;57.80;;;;;;5064384;28;20504;-65
2023/06/02 10:23:34;;;;;;;4.82;4.32;;;21.10;58.00;;;;;;5056383;28;20135;-66
2023/06/02 10:26:21;;;;;;;6.70;4.32;;;21.10;58.50;;;;;;5064367;28;20049;-67
2023/06/02 10:28:49;;;;;;;6.05;4.57;;;21.10;58.30;;;;;;5061840;28;20488;-68
2023/06/02 10:31:17;;;;;;;6.35;4.82;;;21.10;58.00;;;;;;5064337;28;20097;-68
2023/06/02 10:33:53;;;;;;;6.47;4.10;;;21.10;58.10;;;;;;5063326;28;20044;-66
2023/06/02 10:36:22;;;;;;;5.40;4.55;;;21.10;58.10;;;;;;5059451;28;20048;-67
2023/06/02 10:38:49;;;;;;;4.85;3.90;;;21.10;58.00;;;;;;5064160;28;20059;-67
2023/06/02 10:41:21;;;;;;;5.47;4.30;;;21.20;57.90;;;;;;5062918;28;20048;-66
2023/06/02 10:44:21;;;;;;;4.82;4.30;;;21.20;58.30;;;;;;5065049;28;20052;-67
2023/06/02 10:47:29;;;;;;;6.25;3.95;;;21.20;58.10;;;;;;5065651;28;20193;-67
2023/06/02 10:50:05;;;;;;;5.88;4.57;;;21.20;57.80;;;;;;5064765;28;20037;-68
2023/06/02 10:53:08;;;;;;;5.55;4.50;;;21.20;57.90;;;;;;5063041;28;20492;-67
2023/06/02 10:55:38;;;;;;;6.60;4.13;;;21.30;57.50;;;;;;5063364;28;20052;-68
2023/06/02 10:58:08;;;;;;;6.55;4.40;;;21.30;57.80;;;;;;5065592;28;20079;-69
2023/06/02 11:00:49;;;;;;;13.80;4.57;;;21.30;57.90;;;;;;5062730;28;20060;-70
2023/06/02 11:03:29;;;;;;;9.43;4.45;;;21.30;58.20;;;;;;5059318;28;20793;-70
2023/06/02 11:06:18;;;;;;;8.52;4.75;;;21.40;58.10;;;;;;5065317;28;20067;-72
2023/06/02 11:08:47;;;;;;;5.07;4.13;;;21.40;58.20;;;;;;5061774;28;20048;-66
2023/06/02 11:11:51;;;;;;;6.72;4.30;;;21.40;58.30;;;;;;5060626;28;20468;-65
2023/06/02 11:14:19;;;;;;;10.18;4.45;;;21.40;58.10;;;;;;5060980;28;20548;-66
2023/06/02 11:17:27;;;;;;;8.43;3.80;;;21.50;58.10;;;;;;5062927;28;20048;-68
2023/06/02 11:19:55;;;;;;;4.88;4.38;;;21.50;57.90;;;;;;5058873;28;20048;-71
2023/06/02 11:22:23;;;;;;;7.40;4.32;;;21.50;58.00;;;;;;5066145;28;20114;-67
2023/06/02 11:24:51;;;;;;;4.30;3.70;;;21.50;58.10;;;;;;5065914;28;20056;-69
2023/06/02 11:27:41;;;;;;;5.60;4.38;;;21.50;58.40;;;;;;5064100;28;20056;-69
2023/06/02 11:30:14;;;;;;;5.32;4.35;;;21.40;58.50;;;;;;5070992;28;20049;-68
2023/06/02 11:32:43;;;;;;;6.88;4.45;;;21.40;58.30;;;;;;5063223;28;20048;-65
2023/06/02 11:35:11;;;;;;;7.35;4.75;;;21.40;58.30;;;;;;5067189;28;20067;-66
2023/06/02 11:37:41;;;;;;;14.18;5.00;;;21.50;58.40;;;;;;5068889;28;20044;-66
2023/06/02 11:40:10;;;;;;;6.72;4.55;;;21.60;58.20;;;;;;5066080;28;20059;-65
2023/06/02 11:42:40;;;;;;;6.05;4.43;;;21.60;58.60;;;;;;5067239;28;20090;-65
2023/06/02 11:45:19;;;;;;;6.07;4.43;;;21.60;58.70;;;;;;5066478;28;20051;-65
2023/06/02 11:47:57;;;;;;;4.75;4.07;;;21.60;58.50;;;;;;5068946;28;20037;-65
2023/06/02 11:50:24;;;;;;;4.57;4.13;;;21.70;58.50;;;;;;5065698;28;20098;-65
2023/06/02 11:52:52;;;;;;;5.35;3.75;;;21.70;58.30;;;;;;5064715;28;20101;-65
2023/06/02 11:55:19;;;;;;;4.70;3.90;;;21.70;57.90;;;;;;5070023;28;20106;-65
2023/06/02 11:57:47;;;;;;;3.83;3.53;;;21.80;57.70;;;;;;5062142;28;20052;-65
2023/06/02 12:00:19;;;;;;;8.25;4.40;;;21.80;57.40;;;;;;5067224;28;20048;-66
2023/06/02 12:02:57;;;;;;;4.35;3.92;;;21.80;57.00;;;;;;5066633;28;20048;-66
2023/06/02 12:05:31;;;;;;;6.68;4.35;;;21.80;57.00;;;;;;5074553;28;20049;-66
2023/06/02 12:08:14;;;;;;;5.63;3.60;;;21.80;56.70;;;;;;5070936;28;20052;-66
2023/06/02 12:10:42;;;;;;;5.38;3.53;;;21.80;56.70;;;;;;5072141;28;20053;-66
2023/06/02 12:13:09;;;;;;;6.30;4.47;;;21.90;56.50;;;;;;5064075;28;20040;-66
2023/06/02 12:15:37;;;;;;;6.65;4.35;;;21.80;56.50;;;;;;5075344;28;20053;-65
2023/06/02 12:18:06;;;;;;;8.90;4.20;;;21.80;56.60;;;;;;5073529;28;20052;-67
2023/06/02 12:20:40;;;;;;;5.25;4.00;;;21.80;56.80;;;;;;5072028;28;20084;-66
2023/06/02 12:23:10;;;;;;;5.45;4.07;;;21.70;56.80;;;;;;5070705;28;20067;-65
2023/06/02 12:25:38;;;;;;;4.47;3.90;;;21.70;56.80;;;;;;5070156;28;20044;-66
2023/06/02 12:28:13;;;;;;;4.78;4.28;;;21.60;56.90;;;;;;5070915;28;20052;-69
2023/06/02 12:30:40;;;;;;;8.52;4.60;;;21.70;57.20;;;;;;5074303;28;20574;-66
2023/06/02 12:33:09;;;;;;;6.55;4.40;;;21.70;57.10;;;;;;5074938;28;20041;-66
2023/06/02 12:35:38;;;;;;;7.15;4.40;;;21.70;57.30;;;;;;5074089;28;20048;-66
2023/06/02 12:38:08;;;;;;;5.30;3.65;;;21.60;57.30;;;;;;5071731;28;20055;-64
2023/06/02 12:40:39;;;;;;;3.93;3.53;;;21.70;57.70;;;;;;5074890;28;20124;-65
2023/06/02 12:43:06;;;;;;;4.53;3.65;;;21.70;57.70;;;;;;5073713;28;20301;-65
2023/06/02 12:45:33;;;;;;;4.50;3.92;;;21.70;57.60;;;;;;5072988;28;20098;-65
2023/06/02 12:48:02;;;;;;;6.22;3.75;;;21.70;57.60;;;;;;5066412;28;20049;-65
2023/06/02 12:50:30;;;;;;;7.00;4.00;;;21.70;57.60;;;;;;5065055;28;20079;-66
2023/06/02 12:52:57;;;;;;;4.85;4.35;;;21.80;57.80;;;;;;5074416;28;20094;-67
2023/06/02 12:55:26;;;;;;;5.50;4.07;;;21.80;57.70;;;;;;5072949;28;20093;-67
2023/06/02 12:57:54;;;;;;;5.55;4.35;;;21.80;57.50;;;;;;5074648;28;20045;-68
2023/06/02 13:00:21;;;;;;;4.50;3.70;;;21.80;57.60;;;;;;5075189;28;20048;-68
2023/06/02 13:02:49;;;;;;;7.38;3.58;;;21.90;57.80;;;;;;5073640;28;20040;-68